createdAt,value
2018-02-21T00:01:41.558Z,2.50
2018-02-21T00:04:14.159Z,2.60
2018-02-21T00:06:43.238Z,2.60
2018-02-21T00:09:19.290Z,2.60
2018-02-21T00:11:48.588Z,2.60
2018-02-21T00:14:18.020Z,2.60
2018-02-21T00:16:47.162Z,2.60
2018-02-21T00:19:19.692Z,2.60
2018-02-21T00:21:48.685Z,2.60
2018-02-21T00:24:25.224Z,2.50
2018-02-21T00:26:54.500Z,2.50
2018-02-21T00:29:23.872Z,2.50
2018-02-21T00:31:53.665Z,2.50
2018-02-21T00:34:26.507Z,2.50
2018-02-21T00:36:55.480Z,2.50
2018-02-21T00:39:27.570Z,2.40
2018-02-21T00:41:57.036Z,2.40
2018-02-21T00:44:29.997Z,2.40
2018-02-21T00:46:59.785Z,2.40
2018-02-21T00:49:32.691Z,2.40
2018-02-21T00:52:02.449Z,2.40
2018-02-21T00:54:35.326Z,2.40
2018-02-21T00:57:04.590Z,2.40
2018-02-21T00:59:35.981Z,2.30
2018-02-21T01:02:04.949Z,2.30
2018-02-21T01:04:38.124Z,2.20
2018-02-21T01:07:07.853Z,2.20
2018-02-21T01:12:17.162Z,2.30
2018-02-21T01:14:46.231Z,2.40
2018-02-21T01:17:15.217Z,2.40
2018-02-21T01:19:45.775Z,2.40
2018-02-21T01:22:14.735Z,2.30
2018-02-21T01:24:47.181Z,2.30
2018-02-21T01:27:17.436Z,2.30
2018-02-21T01:29:53.463Z,2.20
2018-02-21T01:32:22.464Z,2.20
2018-02-21T01:34:52.385Z,2.10
2018-02-21T01:37:21.387Z,2.10
2018-02-21T01:39:58.226Z,2.10
2018-02-21T01:42:27.245Z,2.00
2018-02-21T01:44:57.712Z,2.00
2018-02-21T01:47:26.928Z,2.00
2018-02-21T01:50:00.041Z,2.00
2018-02-21T01:52:29.066Z,2.00
2018-02-21T01:55:05.508Z,1.90
2018-02-21T01:57:34.511Z,2.00
2018-02-21T02:00:05.104Z,1.90
2018-02-21T02:02:34.925Z,1.80
2018-02-21T02:05:07.607Z,1.80
2018-02-21T02:07:36.672Z,1.80
2018-02-21T02:10:13.738Z,1.90
2018-02-21T02:12:42.965Z,1.90
2018-02-21T02:15:13.032Z,1.90
2018-02-21T02:17:41.942Z,1.90
2018-02-21T02:20:15.115Z,1.80
2018-02-21T02:22:44.081Z,1.80
2018-02-21T02:25:16.721Z,1.80
2018-02-21T02:27:46.735Z,1.80
2018-02-21T02:30:19.059Z,1.80
2018-02-21T02:32:47.993Z,1.80
2018-02-21T02:35:20.421Z,1.80
2018-02-21T02:37:49.407Z,1.80
2018-02-21T02:40:26.233Z,1.80
2018-02-21T02:42:55.200Z,1.70
2018-02-21T02:45:24.440Z,1.70
2018-02-21T02:47:54.455Z,1.80
2018-02-21T02:50:25.811Z,1.80
2018-02-21T02:52:55.085Z,1.80
2018-02-21T02:55:27.980Z,1.70
2018-02-21T02:57:57.751Z,1.70
2018-02-21T03:00:30.241Z,1.60
2018-02-21T03:03:00.065Z,1.70
2018-02-21T03:05:32.408Z,1.70
2018-02-21T03:08:01.354Z,1.70
2018-02-21T03:10:34.283Z,1.80
2018-02-21T03:13:03.608Z,1.80
2018-02-21T03:15:36.475Z,1.70
2018-02-21T03:18:05.423Z,1.70
2018-02-21T03:20:38.614Z,1.70
2018-02-21T03:23:07.659Z,1.70
2018-02-21T03:25:41.230Z,1.70
2018-02-21T03:28:10.698Z,1.70
2018-02-21T03:30:43.992Z,1.70
2018-02-21T03:33:12.931Z,1.60
2018-02-21T03:35:45.221Z,1.70
2018-02-21T03:38:14.540Z,1.70
2018-02-21T03:40:47.741Z,1.80
2018-02-21T03:43:17.583Z,1.80
2018-02-21T03:45:50.477Z,1.80
2018-02-21T03:48:19.777Z,1.80
2018-02-21T03:50:52.580Z,1.80
2018-02-21T03:53:21.832Z,1.90
2018-02-21T03:55:58.249Z,1.80
2018-02-21T03:58:27.287Z,1.80
2018-02-21T04:00:57.098Z,1.80
2018-02-21T04:03:26.062Z,1.80
2018-02-21T04:06:00.000Z,1.70
2018-02-21T04:08:29.068Z,1.70
2018-02-21T04:11:02.271Z,1.70
2018-02-21T04:13:31.612Z,1.70
2018-02-21T04:16:04.920Z,1.70
2018-02-21T04:18:33.862Z,1.60
2018-02-21T04:21:07.779Z,1.60
2018-02-21T04:23:36.787Z,1.60
2018-02-21T04:26:13.523Z,1.60
2018-02-21T04:28:42.759Z,1.60
2018-02-21T04:31:12.489Z,1.60
2018-02-21T04:33:41.496Z,1.60
2018-02-21T04:36:15.206Z,1.60
2018-02-21T04:38:44.897Z,1.60
2018-02-21T04:41:17.754Z,1.60
2018-02-21T04:43:47.039Z,1.60
2018-02-21T04:46:19.018Z,1.60
2018-02-21T04:48:48.013Z,1.60
2018-02-21T04:51:20.980Z,1.50
2018-02-21T04:53:50.068Z,1.40
2018-02-21T04:56:22.424Z,1.40
2018-02-21T04:58:51.847Z,1.40
2018-02-21T05:01:24.831Z,1.50
2018-02-21T05:03:53.855Z,1.40
2018-02-21T05:06:26.893Z,1.50
2018-02-21T05:08:55.875Z,1.40
2018-02-21T05:11:28.924Z,1.40
2018-02-21T05:13:57.833Z,1.40
2018-02-21T05:16:30.416Z,1.40
2018-02-21T05:18:59.696Z,1.40
2018-02-21T05:21:32.432Z,1.40
2018-02-21T05:24:01.420Z,1.40
2018-02-21T05:26:34.636Z,1.40
2018-02-21T05:29:04.380Z,1.30
2018-02-21T05:31:37.801Z,1.30
2018-02-21T05:34:06.796Z,1.30
2018-02-21T05:36:39.277Z,1.40
2018-02-21T05:39:08.641Z,1.40
2018-02-21T05:41:41.635Z,1.40
2018-02-21T05:44:11.502Z,1.30
2018-02-21T05:46:48.599Z,1.40
2018-02-21T05:49:17.625Z,1.40
2018-02-21T05:51:47.348Z,1.50
2018-02-21T05:54:17.478Z,1.50
2018-02-21T05:56:48.169Z,1.50
2018-02-21T05:59:17.397Z,1.40
2018-02-21T06:01:50.491Z,1.50
2018-02-21T06:04:19.520Z,1.50
2018-02-21T06:06:55.613Z,1.50
2018-02-21T06:09:31.495Z,1.40
2018-02-21T06:12:00.634Z,1.40
2018-02-21T06:14:29.571Z,1.40
2018-02-21T06:16:59.293Z,1.40
2018-02-21T06:19:28.287Z,1.40
2018-02-21T06:22:00.364Z,1.40
2018-02-21T06:24:29.308Z,1.40
2018-02-21T06:27:05.735Z,1.40
2018-02-21T06:29:34.998Z,1.40
2018-02-21T06:32:06.351Z,1.40
2018-02-21T06:34:36.086Z,1.20
2018-02-21T06:37:07.947Z,1.20
2018-02-21T06:39:36.908Z,1.30
2018-02-21T06:42:14.760Z,1.30
2018-02-21T06:44:44.075Z,1.30
2018-02-21T06:47:13.716Z,1.40
2018-02-21T06:49:42.823Z,1.30
2018-02-21T06:52:16.896Z,1.40
2018-02-21T06:54:46.639Z,1.40
2018-02-21T06:57:19.445Z,1.40
2018-02-21T06:59:48.675Z,1.40
2018-02-21T07:02:28.692Z,1.40
2018-02-21T07:04:57.966Z,1.40
2018-02-21T07:07:26.998Z,1.40
2018-02-21T07:09:56.076Z,1.40
2018-02-21T07:12:25.100Z,1.40
2018-02-21T07:14:54.120Z,1.50
2018-02-21T07:17:25.764Z,1.50
2018-02-21T07:19:54.792Z,1.50
2018-02-21T07:22:31.562Z,1.50
2018-02-21T07:25:00.863Z,1.60
2018-02-21T07:27:30.020Z,1.50
2018-02-21T07:29:59.028Z,1.60
2018-02-21T07:32:32.990Z,1.70
2018-02-21T07:35:02.118Z,1.70
2018-02-21T07:37:35.144Z,1.80
2018-02-21T07:40:04.477Z,1.80
2018-02-21T07:42:37.283Z,1.80
2018-02-21T07:45:06.289Z,1.90
2018-02-21T07:47:39.942Z,2.10
2018-02-21T07:50:09.380Z,2.10
2018-02-21T07:52:41.643Z,2.10
2018-02-21T07:55:10.934Z,2.10
2018-02-21T07:57:43.563Z,2.10
2018-02-21T08:00:12.705Z,2.20
2018-02-21T08:02:48.029Z,2.20
2018-02-21T08:05:17.257Z,2.30
2018-02-21T08:07:48.970Z,2.30
2018-02-21T08:10:18.393Z,2.30
2018-02-21T08:12:50.865Z,2.40
2018-02-21T08:15:19.901Z,2.40
2018-02-21T08:17:54.899Z,2.60
2018-02-21T08:20:24.018Z,2.50
2018-02-21T08:22:57.718Z,2.70
2018-02-21T08:25:27.145Z,2.60
2018-02-21T08:27:59.971Z,2.70
2018-02-21T08:30:29.106Z,2.80
2018-02-21T08:33:05.842Z,2.90
2018-02-21T08:35:35.025Z,2.90
2018-02-21T08:38:04.484Z,3.10
2018-02-21T08:40:34.680Z,3.10
2018-02-21T08:43:07.401Z,3.10
2018-02-21T08:45:36.573Z,3.10
2018-02-21T08:48:10.163Z,3.10
2018-02-21T08:50:39.311Z,3.10
2018-02-21T08:53:12.787Z,3.10
2018-02-21T08:55:42.282Z,3.10
2018-02-21T08:58:19.984Z,3.20
2018-02-21T09:00:49.785Z,3.20
2018-02-21T09:03:19.614Z,3.40
2018-02-21T09:05:48.619Z,3.30
2018-02-21T09:08:25.200Z,3.50
2018-02-21T09:10:54.265Z,3.60
2018-02-21T09:13:23.356Z,3.70
2018-02-21T09:15:52.663Z,3.70
2018-02-21T09:18:21.786Z,3.90
2018-02-21T09:20:50.811Z,4.00
2018-02-21T09:23:24.356Z,4.20
2018-02-21T09:25:53.459Z,4.30
2018-02-21T09:28:30.192Z,4.50
2018-02-21T09:31:00.282Z,5.20
2018-02-21T09:33:30.105Z,5.70
2018-02-21T09:35:59.156Z,5.70
2018-02-21T09:38:32.161Z,6.00
2018-02-21T09:41:01.184Z,6.20
2018-02-21T09:43:31.434Z,6.50
2018-02-21T09:46:00.841Z,6.70
2018-02-21T09:48:37.031Z,6.80
2018-02-21T09:51:06.086Z,6.90
2018-02-21T09:53:35.455Z,7.10
2018-02-21T09:56:04.478Z,7.20
2018-02-21T09:58:38.016Z,7.50
2018-02-21T10:01:07.472Z,7.50
2018-02-21T10:03:40.461Z,7.80
2018-02-21T10:06:10.260Z,8.00
2018-02-21T10:08:42.531Z,8.20
2018-02-21T10:11:12.421Z,8.20
2018-02-21T10:13:45.073Z,8.20
2018-02-21T10:16:15.540Z,8.30
2018-02-21T10:18:47.244Z,8.60
2018-02-21T10:21:16.283Z,8.60
2018-02-21T10:23:53.124Z,8.70
2018-02-21T10:26:22.200Z,8.40
2018-02-21T10:28:52.267Z,8.50
2018-02-21T10:31:21.601Z,8.70
2018-02-21T10:33:58.084Z,8.90
2018-02-21T10:36:27.159Z,8.90
2018-02-21T10:38:57.153Z,9.10
2018-02-21T10:41:26.413Z,9.10
2018-02-21T10:43:58.985Z,9.00
2018-02-21T10:46:28.001Z,9.00
2018-02-21T10:49:01.594Z,8.80
2018-02-21T10:51:30.701Z,8.90
2018-02-21T10:54:06.873Z,8.90
2018-02-21T10:56:35.881Z,8.80
2018-02-21T10:59:06.457Z,8.70
2018-02-21T11:01:35.819Z,8.70
2018-02-21T11:04:08.990Z,8.60
2018-02-21T11:09:15.804Z,8.50
2018-02-21T11:11:44.874Z,8.40
2018-02-21T11:14:14.378Z,8.40
2018-02-21T11:16:43.472Z,8.30
2018-02-21T11:19:20.173Z,8.20
2018-02-21T11:21:50.075Z,8.20
2018-02-21T11:24:20.155Z,8.30
2018-02-21T11:26:49.172Z,8.30
2018-02-21T11:29:21.824Z,8.20
2018-02-21T11:31:54.375Z,8.20
2018-02-21T11:34:23.769Z,8.30
2018-02-21T11:36:52.823Z,8.30
2018-02-21T11:39:23.906Z,8.10
2018-02-21T11:41:53.288Z,8.10
2018-02-21T11:44:26.940Z,8.30
2018-02-21T11:46:56.040Z,8.40
2018-02-21T11:49:32.684Z,8.40
2018-02-21T11:52:02.595Z,8.60
2018-02-21T11:54:31.634Z,8.60
2018-02-21T11:57:00.981Z,8.70
2018-02-21T11:59:33.104Z,8.90
2018-02-21T12:02:02.929Z,9.30
2018-02-21T12:04:34.339Z,9.20
2018-02-21T12:07:03.417Z,9.20
2018-02-21T12:09:39.621Z,9.20
2018-02-21T12:12:09.580Z,9.10
2018-02-21T12:14:38.747Z,9.10
2018-02-21T12:17:08.850Z,9.20
2018-02-21T12:19:40.938Z,9.30
2018-02-21T12:22:09.948Z,9.30
2018-02-21T12:24:42.695Z,9.30
2018-02-21T12:27:12.497Z,9.50
2018-02-21T12:29:45.832Z,9.50
2018-02-21T12:32:15.052Z,9.50
2018-02-21T12:34:48.076Z,9.40
2018-02-21T12:37:17.194Z,9.20
2018-02-21T12:39:57.513Z,9.00
2018-02-21T12:42:26.820Z,8.80
2018-02-21T12:44:55.915Z,8.70
2018-02-21T12:47:24.971Z,8.80
2018-02-21T12:49:55.152Z,8.90
2018-02-21T12:52:25.024Z,9.20
2018-02-21T12:54:58.028Z,9.20
2018-02-21T12:57:28.160Z,9.10
2018-02-21T13:00:01.695Z,9.00
2018-02-21T13:02:31.190Z,9.00
2018-02-21T13:05:03.856Z,9.00
2018-02-21T13:07:33.040Z,9.10
2018-02-21T13:10:06.476Z,9.20
2018-02-21T13:12:35.960Z,9.20
2018-02-21T13:15:08.994Z,9.30
2018-02-21T13:17:38.067Z,9.30
2018-02-21T13:20:14.655Z,9.30
2018-02-21T13:22:43.741Z,9.30
2018-02-21T13:25:13.896Z,9.40
2018-02-21T13:27:43.272Z,9.40
2018-02-21T13:30:16.377Z,9.30
2018-02-21T13:32:46.262Z,9.10
2018-02-21T13:35:18.740Z,9.10
2018-02-21T13:37:47.785Z,9.20
2018-02-21T13:40:18.268Z,9.20
2018-02-21T13:42:47.592Z,9.30
2018-02-21T13:45:22.177Z,9.50
2018-02-21T13:47:51.284Z,9.50
2018-02-21T13:50:23.361Z,9.50
2018-02-21T13:52:52.452Z,9.60
2018-02-21T13:55:25.293Z,9.60
2018-02-21T13:57:54.702Z,9.60
2018-02-21T14:00:27.274Z,9.60
2018-02-21T14:02:56.281Z,9.70
2018-02-21T14:05:29.456Z,9.80
2018-02-21T14:07:58.588Z,9.90
2018-02-21T14:10:31.167Z,9.90
2018-02-21T14:13:01.350Z,9.80
2018-02-21T14:15:34.753Z,9.80
2018-02-21T14:18:04.806Z,9.80
2018-02-21T14:20:36.621Z,9.80
2018-02-21T14:23:06.008Z,9.80
2018-02-21T14:25:41.778Z,9.70
2018-02-21T14:28:14.030Z,9.50
2018-02-21T14:30:46.343Z,9.50
2018-02-21T14:33:15.550Z,9.40
2018-02-21T14:35:46.770Z,9.50
2018-02-21T14:38:16.703Z,9.60
2018-02-21T14:40:47.421Z,9.40
2018-02-21T14:43:18.137Z,9.40
2018-02-21T14:45:47.300Z,9.40
2018-02-21T14:48:17.575Z,9.20
2018-02-21T14:50:49.559Z,9.20
2018-02-21T14:53:18.749Z,9.20
2018-02-21T14:55:52.209Z,9.00
2018-02-21T14:58:23.079Z,8.90
2018-02-21T15:00:55.652Z,8.70
2018-02-21T15:03:26.007Z,8.60
2018-02-21T15:05:57.121Z,8.60
2018-02-21T15:08:27.241Z,8.50
2018-02-21T15:11:00.433Z,8.50
2018-02-21T15:13:31.553Z,8.30
2018-02-21T15:16:07.069Z,8.10
2018-02-21T15:18:37.448Z,8.10
2018-02-21T15:21:08.037Z,8.10
2018-02-21T15:23:37.348Z,7.90
2018-02-21T15:26:07.585Z,7.90
2018-02-21T15:28:37.121Z,7.90
2018-02-21T15:31:13.072Z,7.90
2018-02-21T15:33:45.332Z,7.80
2018-02-21T15:36:16.028Z,7.80
2018-02-21T15:38:47.062Z,7.80
2018-02-21T15:41:19.540Z,7.50
2018-02-21T15:43:52.017Z,7.50
2018-02-21T15:46:23.336Z,7.50
2018-02-21T15:48:54.760Z,7.40
2018-02-21T15:51:26.664Z,7.40
2018-02-21T15:53:57.964Z,7.30
2018-02-21T15:56:29.459Z,7.30
2018-02-21T15:59:01.004Z,7.10
2018-02-21T16:01:31.690Z,7.10
2018-02-21T16:04:02.786Z,7.00
2018-02-21T16:06:34.229Z,7.00
2018-02-21T16:09:06.376Z,7.00
2018-02-21T16:11:38.463Z,6.80
2018-02-21T16:14:12.086Z,6.80
2018-02-21T16:16:43.762Z,6.80
2018-02-21T16:19:16.263Z,6.70
2018-02-21T16:21:49.278Z,6.60
2018-02-21T16:24:21.444Z,6.60
2018-02-21T16:26:53.044Z,6.50
2018-02-21T16:29:23.842Z,6.40
2018-02-21T16:31:54.985Z,6.30
2018-02-21T16:34:26.804Z,6.30
2018-02-21T16:37:00.488Z,6.20
2018-02-21T16:39:36.872Z,6.10
2018-02-21T16:42:08.984Z,6.00
2018-02-21T16:44:47.955Z,5.90
2018-02-21T16:47:18.115Z,5.90
2018-02-21T16:49:48.965Z,5.90
2018-02-21T16:52:20.902Z,5.90
2018-02-21T16:54:52.913Z,5.80
2018-02-21T16:57:24.392Z,5.80
2018-02-21T16:59:57.464Z,5.50
2018-02-21T17:02:28.111Z,5.50
2018-02-21T17:04:59.910Z,5.50
2018-02-21T17:07:30.270Z,5.50
2018-02-21T17:10:03.792Z,5.50
2018-02-21T17:15:00.050Z,5.40
2018-02-21T17:17:30.646Z,5.30
2018-02-21T17:20:02.090Z,5.20
2018-02-21T17:22:34.212Z,5.20
2018-02-21T17:25:05.516Z,5.10
2018-02-21T17:27:37.556Z,5.10
2018-02-21T17:30:08.826Z,5.00
2018-02-21T17:32:40.590Z,5.00
2018-02-21T17:35:13.333Z,4.90
2018-02-21T17:37:44.950Z,4.90
2018-02-21T17:40:20.684Z,4.90
2018-02-21T17:42:53.430Z,4.90
2018-02-21T17:45:26.123Z,4.80
2018-02-21T17:47:58.107Z,4.80
2018-02-21T17:50:29.713Z,4.70
2018-02-21T17:53:01.884Z,4.70
2018-02-21T17:55:33.779Z,4.70
2018-02-21T17:58:06.239Z,4.60
2018-02-21T18:00:39.675Z,4.60
2018-02-21T18:03:16.490Z,4.50
2018-02-21T18:05:51.245Z,4.50
2018-02-21T18:08:24.947Z,4.40
2018-02-21T18:10:57.524Z,4.30
2018-02-21T18:13:29.945Z,4.30
2018-02-21T18:16:01.722Z,4.30
2018-02-21T18:18:35.219Z,4.30
2018-02-21T18:21:11.398Z,4.20
2018-02-21T18:23:44.712Z,4.10
2018-02-21T18:26:17.222Z,4.10
2018-02-21T18:28:50.117Z,4.10
2018-02-21T18:31:28.013Z,4.20
2018-02-21T18:34:01.453Z,4.10
2018-02-21T18:39:00.187Z,4.00
2018-02-21T18:41:40.106Z,4.10
2018-02-21T18:44:12.825Z,4.00
2018-02-21T18:46:52.387Z,4.00
2018-02-21T18:49:24.897Z,4.00
2018-02-21T18:51:58.386Z,3.90
2018-02-21T18:54:40.123Z,3.80
2018-02-21T18:57:13.116Z,3.80
2018-02-21T18:59:46.441Z,3.80
2018-02-21T19:02:19.056Z,3.80
2018-02-21T19:04:51.796Z,3.80
2018-02-21T19:07:24.658Z,3.70
2018-02-21T19:09:56.537Z,3.70
2018-02-21T19:12:29.342Z,3.70
2018-02-21T19:15:00.997Z,3.70
2018-02-21T19:17:33.127Z,3.60
2018-02-21T19:20:05.603Z,3.60
2018-02-21T19:22:38.526Z,3.50
2018-02-21T19:27:34.053Z,3.50
2018-02-21T19:30:08.577Z,3.50
2018-02-21T19:32:44.737Z,3.50
2018-02-21T19:35:19.516Z,3.40
2018-02-21T19:37:51.813Z,3.50
2018-02-21T19:40:24.971Z,3.50
2018-02-21T19:43:01.659Z,3.50
2018-02-21T19:45:33.890Z,3.50
2018-02-21T19:48:11.372Z,3.50
2018-02-21T19:50:44.022Z,3.50
2018-02-21T19:53:16.609Z,3.50
2018-02-21T19:55:50.239Z,3.40
2018-02-21T19:58:23.333Z,3.40
2018-02-21T20:00:56.077Z,3.50
2018-02-21T20:03:30.756Z,3.50
2018-02-21T20:06:02.968Z,3.40
2018-02-21T20:08:38.986Z,3.40
2018-02-21T20:11:16.676Z,3.40
2018-02-21T20:14:00.991Z,3.40
2018-02-21T20:16:32.882Z,3.30
2018-02-21T20:19:04.908Z,3.30
2018-02-21T20:21:37.775Z,3.30
2018-02-21T20:24:11.334Z,3.30
2018-02-21T20:26:43.524Z,3.30
2018-02-21T20:31:55.837Z,3.20
2018-02-21T20:34:34.204Z,3.20
2018-02-21T20:37:09.197Z,3.10
2018-02-21T20:39:41.270Z,3.10
2018-02-21T20:42:13.984Z,3.10
2018-02-21T20:44:47.017Z,3.10
2018-02-21T20:47:18.371Z,3.10
2018-02-21T20:49:51.963Z,3.00
2018-02-21T20:52:33.821Z,3.00
2018-02-21T20:55:07.710Z,3.00
2018-02-21T20:57:41.492Z,3.00
2018-02-21T21:00:15.556Z,2.90
2018-02-21T21:02:47.171Z,2.90
2018-02-21T21:05:18.916Z,3.00
2018-02-21T21:07:52.207Z,3.00
2018-02-21T21:10:25.577Z,2.90
2018-02-21T21:12:59.275Z,2.90
2018-02-21T21:15:32.087Z,2.90
2018-02-21T21:18:04.750Z,3.00
2018-02-21T21:23:14.932Z,3.00
2018-02-21T21:25:58.711Z,3.00
2018-02-21T21:28:32.462Z,3.00
2018-02-21T21:31:04.778Z,2.90
2018-02-21T21:33:36.752Z,2.80
2018-02-21T21:36:07.946Z,2.80
2018-02-21T21:38:38.992Z,2.80
2018-02-21T21:41:10.615Z,2.70
2018-02-21T21:43:41.629Z,2.70
2018-02-21T21:46:10.988Z,2.70
2018-02-21T21:48:41.843Z,2.70
2018-02-21T21:51:12.727Z,2.70
2018-02-21T21:53:43.722Z,2.70
2018-02-21T21:56:13.653Z,2.70
2018-02-21T21:58:44.215Z,2.70
2018-02-21T22:01:13.434Z,2.60
2018-02-21T22:03:43.288Z,2.60
2018-02-21T22:06:12.761Z,2.60
2018-02-21T22:08:42.589Z,2.60
2018-02-21T22:11:12.447Z,2.60
2018-02-21T22:13:41.502Z,2.60
2018-02-21T22:16:14.313Z,2.60
2018-02-21T22:18:43.706Z,2.60
2018-02-21T22:21:16.616Z,2.60
2018-02-21T22:23:45.754Z,2.60
2018-02-21T22:26:18.130Z,2.60
2018-02-21T22:28:47.268Z,2.60
2018-02-21T22:31:24.607Z,2.50
2018-02-21T22:33:53.820Z,2.40
2018-02-21T22:36:22.860Z,2.50
2018-02-21T22:38:51.930Z,2.40
2018-02-21T22:41:28.511Z,2.40
2018-02-21T22:43:57.518Z,2.40
2018-02-21T22:46:26.642Z,2.40
2018-02-21T22:48:56.128Z,2.40
2018-02-21T22:51:28.555Z,2.40
2018-02-21T22:53:57.600Z,2.40
2018-02-21T22:56:32.209Z,2.30
2018-02-21T22:59:01.575Z,2.30
2018-02-21T23:01:34.008Z,2.30
2018-02-21T23:04:03.116Z,2.30
2018-02-21T23:06:34.395Z,2.20
2018-02-21T23:09:03.811Z,2.30
2018-02-21T23:11:36.844Z,2.20
2018-02-21T23:14:05.863Z,2.20
2018-02-21T23:16:42.257Z,2.10
2018-02-21T23:19:11.746Z,2.10
2018-02-21T23:21:40.792Z,2.10
2018-02-21T23:24:10.516Z,2.20
2018-02-21T23:26:47.248Z,2.20
2018-02-21T23:29:17.032Z,2.10
2018-02-21T23:32:10.792Z,2.10
2018-02-21T23:34:46.788Z,2.10
2018-02-21T23:37:16.094Z,2.10
2018-02-21T23:39:48.913Z,2.20
2018-02-21T23:42:18.001Z,2.10
2018-02-21T23:44:54.778Z,2.00
2018-02-21T23:47:24.060Z,2.10
2018-02-21T23:49:53.562Z,2.00
2018-02-21T23:52:23.659Z,2.00
2018-02-21T23:54:55.768Z,2.00
2018-02-21T23:57:24.797Z,2.00
2018-02-21T23:59:57.493Z,2.00
